sensor_id;sensor_type;location;lat;lon;timestamp;temperature;humidity
22456;DHT22;11395;53.204;6.502;2022-11-23T00:09:42;23.20;56.00
22456;DHT22;11395;53.204;6.502;2022-11-23T00:12:08;23.00;56.70
22456;DHT22;11395;53.204;6.502;2022-11-23T00:14:35;22.90;56.90
22456;DHT22;11395;53.204;6.502;2022-11-23T00:17:01;22.90;56.90
22456;DHT22;11395;53.204;6.502;2022-11-23T00:19:27;22.90;56.90
22456;DHT22;11395;53.204;6.502;2022-11-23T00:21:53;22.80;56.80
22456;DHT22;11395;53.204;6.502;2022-11-23T00:24:20;22.80;56.80
22456;DHT22;11395;53.204;6.502;2022-11-23T00:26:46;22.80;56.80
22456;DHT22;11395;53.204;6.502;2022-11-23T00:29:12;22.80;56.80
22456;DHT22;11395;53.204;6.502;2022-11-23T00:31:39;22.80;56.70
22456;DHT22;11395;53.204;6.502;2022-11-23T00:34:06;22.80;56.70
22456;DHT22;11395;53.204;6.502;2022-11-23T00:36:32;22.80;56.80
22456;DHT22;11395;53.204;6.502;2022-11-23T00:38:59;22.80;56.80
22456;DHT22;11395;53.204;6.502;2022-11-23T00:41:26;22.80;56.80
22456;DHT22;11395;53.204;6.502;2022-11-23T00:43:53;22.70;56.70
22456;DHT22;11395;53.204;6.502;2022-11-23T00:48:50;22.70;56.70
22456;DHT22;11395;53.204;6.502;2022-11-23T00:51:18;22.70;56.80
22456;DHT22;11395;53.204;6.502;2022-11-23T00:53:45;22.70;56.80
22456;DHT22;11395;53.204;6.502;2022-11-23T00:56:12;22.70;56.80
22456;DHT22;11395;53.204;6.502;2022-11-23T00:58:38;22.70;56.80
22456;DHT22;11395;53.204;6.502;2022-11-23T01:09:42;22.40;56.60
22456;DHT22;11395;53.204;6.502;2022-11-23T01:12:08;22.30;57.40
22456;DHT22;11395;53.204;6.502;2022-11-23T01:14:35;22.30;57.60
22456;DHT22;11395;53.204;6.502;2022-11-23T01:17:04;22.20;57.70
22456;DHT22;11395;53.204;6.502;2022-11-23T01:19:33;22.20;57.60
22456;DHT22;11395;53.204;6.502;2022-11-23T01:21:59;22.20;57.60
22456;DHT22;11395;53.204;6.502;2022-11-23T01:24:26;22.20;57.50
22456;DHT22;11395;53.204;6.502;2022-11-23T01:26:53;22.20;57.60
22456;DHT22;11395;53.204;6.502;2022-11-23T01:29:20;22.20;57.50
22456;DHT22;11395;53.204;6.502;2022-11-23T01:31:47;22.20;57.50
22456;DHT22;11395;53.204;6.502;2022-11-23T01:34:14;22.20;57.60
22456;DHT22;11395;53.204;6.502;2022-11-23T01:36:41;22.20;57.50
22456;DHT22;11395;53.204;6.502;2022-11-23T01:39:09;22.20;57.50
22456;DHT22;11395;53.204;6.502;2022-11-23T01:41:41;22.10;57.50
22456;DHT22;11395;53.204;6.502;2022-11-23T01:44:25;22.10;57.50
22456;DHT22;11395;53.204;6.502;2022-11-23T01:46:57;22.10;57.70
22456;DHT22;11395;53.204;6.502;2022-11-23T01:49:25;22.10;57.50
22456;DHT22;11395;53.204;6.502;2022-11-23T01:51:55;22.10;57.70
22456;DHT22;11395;53.204;6.502;2022-11-23T01:54:43;22.00;57.60
22456;DHT22;11395;53.204;6.502;2022-11-23T01:57:27;22.00;57.70
22456;DHT22;11395;53.204;6.502;2022-11-23T01:59:57;22.00;57.70
22456;DHT22;11395;53.204;6.502;2022-11-23T02:09:42;21.80;57.70
22456;DHT22;11395;53.204;6.502;2022-11-23T02:12:11;21.70;58.40
22456;DHT22;11395;53.204;6.502;2022-11-23T02:14:37;21.60;58.60
22456;DHT22;11395;53.204;6.502;2022-11-23T02:17:04;21.60;58.70
22456;DHT22;11395;53.204;6.502;2022-11-23T02:22:06;21.60;58.60
22456;DHT22;11395;53.204;6.502;2022-11-23T02:24:40;21.60;58.40
22456;DHT22;11395;53.204;6.502;2022-11-23T02:27:10;21.70;58.50
22456;DHT22;11395;53.204;6.502;2022-11-23T02:29:36;21.60;58.30
22456;DHT22;11395;53.204;6.502;2022-11-23T02:32:02;21.60;58.20
22456;DHT22;11395;53.204;6.502;2022-11-23T02:34:29;21.60;58.30
22456;DHT22;11395;53.204;6.502;2022-11-23T02:36:56;21.70;58.30
22456;DHT22;11395;53.204;6.502;2022-11-23T02:39:51;21.60;58.20
22456;DHT22;11395;53.204;6.502;2022-11-23T02:42:16;21.60;58.20
22456;DHT22;11395;53.204;6.502;2022-11-23T02:45:17;21.60;58.20
22456;DHT22;11395;53.204;6.502;2022-11-23T02:47:46;21.60;58.30
22456;DHT22;11395;53.204;6.502;2022-11-23T02:50:15;21.60;58.30
22456;DHT22;11395;53.204;6.502;2022-11-23T02:52:42;21.60;58.20
22456;DHT22;11395;53.204;6.502;2022-11-23T02:55:09;21.60;58.20
22456;DHT22;11395;53.204;6.502;2022-11-23T02:57:35;21.50;58.20
22456;DHT22;11395;53.204;6.502;2022-11-23T03:00:03;21.50;58.30
22456;DHT22;11395;53.204;6.502;2022-11-23T03:09:44;21.30;58.20
22456;DHT22;11395;53.204;6.502;2022-11-23T03:12:10;21.20;58.90
22456;DHT22;11395;53.204;6.502;2022-11-23T03:14:37;21.20;59.00
22456;DHT22;11395;53.204;6.502;2022-11-23T03:17:04;21.20;59.00
22456;DHT22;11395;53.204;6.502;2022-11-23T03:19:35;21.20;59.10
22456;DHT22;11395;53.204;6.502;2022-11-23T03:22:02;21.20;58.90
22456;DHT22;11395;53.204;6.502;2022-11-23T03:24:30;21.20;58.90
22456;DHT22;11395;53.204;6.502;2022-11-23T03:26:57;21.20;58.90
22456;DHT22;11395;53.204;6.502;2022-11-23T03:29:23;21.20;58.90
22456;DHT22;11395;53.204;6.502;2022-11-23T03:31:53;21.20;58.80
22456;DHT22;11395;53.204;6.502;2022-11-23T03:34:21;21.20;58.80
22456;DHT22;11395;53.204;6.502;2022-11-23T03:36:47;21.20;59.40
22456;DHT22;11395;53.204;6.502;2022-11-23T03:39:13;21.20;58.80
22456;DHT22;11395;53.204;6.502;2022-11-23T03:42:17;21.20;58.70
22456;DHT22;11395;53.204;6.502;2022-11-23T03:44:45;21.20;58.70
22456;DHT22;11395;53.204;6.502;2022-11-23T03:47:11;21.20;58.70
22456;DHT22;11395;53.204;6.502;2022-11-23T03:49:37;21.20;58.70
22456;DHT22;11395;53.204;6.502;2022-11-23T03:52:03;21.20;58.70
22456;DHT22;11395;53.204;6.502;2022-11-23T03:54:30;21.20;58.70
22456;DHT22;11395;53.204;6.502;2022-11-23T03:56:56;21.20;58.70
22456;DHT22;11395;53.204;6.502;2022-11-23T03:59:22;21.20;58.70
22456;DHT22;11395;53.204;6.502;2022-11-23T04:09:42;21.00;58.40
22456;DHT22;11395;53.204;6.502;2022-11-23T04:12:30;20.90;59.20
22456;DHT22;11395;53.204;6.502;2022-11-23T04:14:57;20.80;59.40
22456;DHT22;11395;53.204;6.502;2022-11-23T04:17:23;20.80;59.50
22456;DHT22;11395;53.204;6.502;2022-11-23T04:19:49;20.80;59.40
22456;DHT22;11395;53.204;6.502;2022-11-23T04:22:16;20.80;59.20
22456;DHT22;11395;53.204;6.502;2022-11-23T04:24:42;20.90;59.10
22456;DHT22;11395;53.204;6.502;2022-11-23T04:27:09;20.90;59.20
22456;DHT22;11395;53.204;6.502;2022-11-23T04:29:36;21.00;58.90
22456;DHT22;11395;53.204;6.502;2022-11-23T04:32:02;21.00;59.00
22456;DHT22;11395;53.204;6.502;2022-11-23T04:34:29;21.10;59.00
22456;DHT22;11395;53.204;6.502;2022-11-23T04:36:55;21.20;59.70
22456;DHT22;11395;53.204;6.502;2022-11-23T04:39:28;21.20;58.90
22456;DHT22;11395;53.204;6.502;2022-11-23T04:42:18;21.30;58.90
22456;DHT22;11395;53.204;6.502;2022-11-23T04:44:50;21.30;58.80
22456;DHT22;11395;53.204;6.502;2022-11-23T04:47:17;21.40;58.80
22456;DHT22;11395;53.204;6.502;2022-11-23T04:49:45;21.50;58.80
22456;DHT22;11395;53.204;6.502;2022-11-23T04:52:11;21.50;58.70
22456;DHT22;11395;53.204;6.502;2022-11-23T04:54:43;21.60;58.60
22456;DHT22;11395;53.204;6.502;2022-11-23T04:57:10;21.60;58.50
22456;DHT22;11395;53.204;6.502;2022-11-23T04:59:38;21.70;58.50
22456;DHT22;11395;53.204;6.502;2022-11-23T05:02:04;21.70;58.40
22456;DHT22;11395;53.204;6.502;2022-11-23T05:04:53;21.80;59.10
22456;DHT22;11395;53.204;6.502;2022-11-23T05:07:22;21.80;58.40
22456;DHT22;11395;53.204;6.502;2022-11-23T05:09:54;21.80;58.90
22456;DHT22;11395;53.204;6.502;2022-11-23T05:12:21;21.90;58.30
22456;DHT22;11395;53.204;6.502;2022-11-23T05:14:47;21.90;58.20
22456;DHT22;11395;53.204;6.502;2022-11-23T05:17:19;21.90;58.20
22456;DHT22;11395;53.204;6.502;2022-11-23T05:19:46;22.00;58.10
22456;DHT22;11395;53.204;6.502;2022-11-23T05:22:13;22.00;58.10
22456;DHT22;11395;53.204;6.502;2022-11-23T05:24:40;22.10;58.10
22456;DHT22;11395;53.204;6.502;2022-11-23T05:27:10;22.10;58.10
22456;DHT22;11395;53.204;6.502;2022-11-23T05:29:37;22.20;58.00
22456;DHT22;11395;53.204;6.502;2022-11-23T05:32:05;22.30;58.00
22456;DHT22;11395;53.204;6.502;2022-11-23T05:34:32;22.30;57.90
22456;DHT22;11395;53.204;6.502;2022-11-23T05:36:59;22.40;57.90
22456;DHT22;11395;53.204;6.502;2022-11-23T05:39:25;22.50;57.80
22456;DHT22;11395;53.204;6.502;2022-11-23T05:41:53;22.60;57.70
22456;DHT22;11395;53.204;6.502;2022-11-23T05:44:30;22.70;57.80
22456;DHT22;11395;53.204;6.502;2022-11-23T05:46:57;22.80;57.60
22456;DHT22;11395;53.204;6.502;2022-11-23T05:49:25;22.90;57.60
22456;DHT22;11395;53.204;6.502;2022-11-23T05:51:52;23.00;57.50
22456;DHT22;11395;53.204;6.502;2022-11-23T05:54:18;23.20;57.50
22456;DHT22;11395;53.204;6.502;2022-11-23T05:56:57;23.30;57.40
22456;DHT22;11395;53.204;6.502;2022-11-23T05:59:33;23.40;57.30
22456;DHT22;11395;53.204;6.502;2022-11-23T06:02:01;23.50;57.20
22456;DHT22;11395;53.204;6.502;2022-11-23T06:04:31;23.60;57.10
22456;DHT22;11395;53.204;6.502;2022-11-23T06:06:58;23.70;57.00
22456;DHT22;11395;53.204;6.502;2022-11-23T06:09:28;23.80;56.90
22456;DHT22;11395;53.204;6.502;2022-11-23T06:11:58;23.90;56.80
22456;DHT22;11395;53.204;6.502;2022-11-23T06:14:24;24.00;56.70
22456;DHT22;11395;53.204;6.502;2022-11-23T06:16:50;24.10;56.70
22456;DHT22;11395;53.204;6.502;2022-11-23T06:19:30;24.10;56.40
22456;DHT22;11395;53.204;6.502;2022-11-23T06:21:56;24.10;56.30
22456;DHT22;11395;53.204;6.502;2022-11-23T06:24:23;24.20;56.40
22456;DHT22;11395;53.204;6.502;2022-11-23T06:27:09;24.20;56.20
22456;DHT22;11395;53.204;6.502;2022-11-23T06:29:35;24.30;56.20
22456;DHT22;11395;53.204;6.502;2022-11-23T06:32:01;24.30;56.10
22456;DHT22;11395;53.204;6.502;2022-11-23T06:34:28;24.30;56.00
22456;DHT22;11395;53.204;6.502;2022-11-23T06:36:54;24.30;55.90
22456;DHT22;11395;53.204;6.502;2022-11-23T06:39:22;24.40;55.90
22456;DHT22;11395;53.204;6.502;2022-11-23T06:41:49;24.40;55.80
22456;DHT22;11395;53.204;6.502;2022-11-23T06:44:15;24.40;55.80
22456;DHT22;11395;53.204;6.502;2022-11-23T06:46:42;24.30;55.70
22456;DHT22;11395;53.204;6.502;2022-11-23T06:49:09;24.30;55.40
22456;DHT22;11395;53.204;6.502;2022-11-23T06:51:36;24.30;55.40
22456;DHT22;11395;53.204;6.502;2022-11-23T06:54:02;24.30;55.40
22456;DHT22;11395;53.204;6.502;2022-11-23T06:56:30;24.20;55.50
22456;DHT22;11395;53.204;6.502;2022-11-23T06:58:57;24.20;55.50
22456;DHT22;11395;53.204;6.502;2022-11-23T07:01:26;24.20;55.80
22456;DHT22;11395;53.204;6.502;2022-11-23T07:04:11;24.20;55.70
22456;DHT22;11395;53.204;6.502;2022-11-23T07:06:45;24.10;55.80
22456;DHT22;11395;53.204;6.502;2022-11-23T07:09:22;24.10;56.00
22456;DHT22;11395;53.204;6.502;2022-11-23T07:12:08;24.10;56.10
22456;DHT22;11395;53.204;6.502;2022-11-23T07:14:34;24.10;56.20
22456;DHT22;11395;53.204;6.502;2022-11-23T07:17:00;24.10;56.30
22456;DHT22;11395;53.204;6.502;2022-11-23T07:19:27;24.10;56.20
22456;DHT22;11395;53.204;6.502;2022-11-23T07:21:56;24.10;56.30
22456;DHT22;11395;53.204;6.502;2022-11-23T07:24:23;24.20;56.30
22456;DHT22;11395;53.204;6.502;2022-11-23T07:26:49;24.20;56.30
22456;DHT22;11395;53.204;6.502;2022-11-23T07:29:15;24.20;56.30
22456;DHT22;11395;53.204;6.502;2022-11-23T07:31:41;24.30;56.20
22456;DHT22;11395;53.204;6.502;2022-11-23T07:34:08;24.30;56.20
22456;DHT22;11395;53.204;6.502;2022-11-23T07:36:36;24.30;56.10
22456;DHT22;11395;53.204;6.502;2022-11-23T07:39:02;24.40;56.20
22456;DHT22;11395;53.204;6.502;2022-11-23T07:41:28;24.40;56.10
22456;DHT22;11395;53.204;6.502;2022-11-23T07:44:07;24.40;55.90
22456;DHT22;11395;53.204;6.502;2022-11-23T07:46:33;24.40;55.90
22456;DHT22;11395;53.204;6.502;2022-11-23T07:48:59;24.40;55.80
22456;DHT22;11395;53.204;6.502;2022-11-23T07:51:28;24.40;55.80
22456;DHT22;11395;53.204;6.502;2022-11-23T07:53:54;24.40;55.80
22456;DHT22;11395;53.204;6.502;2022-11-23T07:56:20;24.40;55.70
22456;DHT22;11395;53.204;6.502;2022-11-23T07:58:46;24.40;55.70
22456;DHT22;11395;53.204;6.502;2022-11-23T08:01:16;24.40;55.70
22456;DHT22;11395;53.204;6.502;2022-11-23T08:03:44;24.40;55.70
22456;DHT22;11395;53.204;6.502;2022-11-23T08:06:11;24.40;55.80
22456;DHT22;11395;53.204;6.502;2022-11-23T08:08:38;24.40;55.90
22456;DHT22;11395;53.204;6.502;2022-11-23T08:11:08;24.30;56.60
22456;DHT22;11395;53.204;6.502;2022-11-23T08:13:35;24.30;56.00
22456;DHT22;11395;53.204;6.502;2022-11-23T08:16:02;24.30;56.10
22456;DHT22;11395;53.204;6.502;2022-11-23T08:18:28;24.30;56.10
22456;DHT22;11395;53.204;6.502;2022-11-23T08:20:58;24.20;56.10
22456;DHT22;11395;53.204;6.502;2022-11-23T08:23:25;24.20;56.10
22456;DHT22;11395;53.204;6.502;2022-11-23T08:25:52;24.20;56.20
22456;DHT22;11395;53.204;6.502;2022-11-23T08:28:18;24.20;56.30
22456;DHT22;11395;53.204;6.502;2022-11-23T08:30:45;24.20;56.40
22456;DHT22;11395;53.204;6.502;2022-11-23T08:33:12;24.20;56.40
22456;DHT22;11395;53.204;6.502;2022-11-23T08:35:40;24.20;56.50
22456;DHT22;11395;53.204;6.502;2022-11-23T08:38:08;24.20;56.60
22456;DHT22;11395;53.204;6.502;2022-11-23T08:40:35;24.20;56.60
22456;DHT22;11395;53.204;6.502;2022-11-23T08:43:02;24.30;56.70
22456;DHT22;11395;53.204;6.502;2022-11-23T08:45:28;24.30;56.80
22456;DHT22;11395;53.204;6.502;2022-11-23T08:47:59;24.40;56.80
22456;DHT22;11395;53.204;6.502;2022-11-23T08:50:26;24.40;56.80
22456;DHT22;11395;53.204;6.502;2022-11-23T08:52:55;24.40;56.90
22456;DHT22;11395;53.204;6.502;2022-11-23T08:55:23;24.40;56.80
22456;DHT22;11395;53.204;6.502;2022-11-23T08:57:53;24.50;56.90
22456;DHT22;11395;53.204;6.502;2022-11-23T09:00:19;24.50;56.90
22456;DHT22;11395;53.204;6.502;2022-11-23T09:02:45;24.60;56.90
22456;DHT22;11395;53.204;6.502;2022-11-23T09:05:11;24.50;56.70
22456;DHT22;11395;53.204;6.502;2022-11-23T09:07:38;24.60;56.70
22456;DHT22;11395;53.204;6.502;2022-11-23T09:10:05;24.60;56.80
22456;DHT22;11395;53.204;6.502;2022-11-23T09:12:32;24.50;56.70
22456;DHT22;11395;53.204;6.502;2022-11-23T09:14:58;24.60;56.80
22456;DHT22;11395;53.204;6.502;2022-11-23T09:17:24;24.60;56.70
22456;DHT22;11395;53.204;6.502;2022-11-23T09:19:50;24.50;56.90
22456;DHT22;11395;53.204;6.502;2022-11-23T09:22:16;24.50;57.30
22456;DHT22;11395;53.204;6.502;2022-11-23T09:24:43;24.50;57.30
22456;DHT22;11395;53.204;6.502;2022-11-23T09:27:09;24.50;57.20
22456;DHT22;11395;53.204;6.502;2022-11-23T09:29:35;24.40;57.10
22456;DHT22;11395;53.204;6.502;2022-11-23T09:32:02;24.40;57.10
22456;DHT22;11395;53.204;6.502;2022-11-23T09:34:28;24.40;57.10
22456;DHT22;11395;53.204;6.502;2022-11-23T09:36:56;24.40;57.10
22456;DHT22;11395;53.204;6.502;2022-11-23T09:39:22;24.40;57.20
22456;DHT22;11395;53.204;6.502;2022-11-23T09:42:00;24.40;57.20
22456;DHT22;11395;53.204;6.502;2022-11-23T09:49:53;24.30;57.30
22456;DHT22;11395;53.204;6.502;2022-11-23T09:52:22;24.30;57.40
22456;DHT22;11395;53.204;6.502;2022-11-23T09:54:54;24.30;57.40
22456;DHT22;11395;53.204;6.502;2022-11-23T09:57:26;24.20;57.40
22456;DHT22;11395;53.204;6.502;2022-11-23T10:00:04;24.20;57.40
22456;DHT22;11395;53.204;6.502;2022-11-23T10:02:34;24.20;57.50
22456;DHT22;11395;53.204;6.502;2022-11-23T10:05:02;24.10;57.50
22456;DHT22;11395;53.204;6.502;2022-11-23T10:07:40;24.10;57.60
22456;DHT22;11395;53.204;6.502;2022-11-23T10:13:21;24.00;57.70
22456;DHT22;11395;53.204;6.502;2022-11-23T10:16:08;24.00;57.70
22456;DHT22;11395;53.204;6.502;2022-11-23T10:24:22;24.10;57.80
22456;DHT22;11395;53.204;6.502;2022-11-23T10:26:50;24.10;57.80
22456;DHT22;11395;53.204;6.502;2022-11-23T10:29:33;24.20;57.90
22456;DHT22;11395;53.204;6.502;2022-11-23T10:32:00;24.20;57.90
22456;DHT22;11395;53.204;6.502;2022-11-23T10:37:13;24.30;59.00
22456;DHT22;11395;53.204;6.502;2022-11-23T10:39:40;24.40;59.40
22456;DHT22;11395;53.204;6.502;2022-11-23T10:42:23;24.50;61.10
22456;DHT22;11395;53.204;6.502;2022-11-23T10:44:52;24.50;60.90
22456;DHT22;11395;53.204;6.502;2022-11-23T10:47:56;24.60;60.80
22456;DHT22;11395;53.204;6.502;2022-11-23T10:50:38;24.50;56.80
22456;DHT22;11395;53.204;6.502;2022-11-23T10:53:22;24.40;58.20
22456;DHT22;11395;53.204;6.502;2022-11-23T10:55:57;24.40;58.70
22456;DHT22;11395;53.204;6.502;2022-11-23T10:58:41;24.30;59.10
22456;DHT22;11395;53.204;6.502;2022-11-23T11:01:20;24.30;58.80
22456;DHT22;11395;53.204;6.502;2022-11-23T11:03:51;24.30;59.00
22456;DHT22;11395;53.204;6.502;2022-11-23T11:06:30;24.30;59.10
22456;DHT22;11395;53.204;6.502;2022-11-23T11:09:02;24.30;59.10
22456;DHT22;11395;53.204;6.502;2022-11-23T11:11:38;24.30;59.00
22456;DHT22;11395;53.204;6.502;2022-11-23T11:14:19;24.30;59.00
22456;DHT22;11395;53.204;6.502;2022-11-23T11:16:51;24.30;59.20
22456;DHT22;11395;53.204;6.502;2022-11-23T11:19:34;24.30;59.40
22456;DHT22;11395;53.204;6.502;2022-11-23T11:22:23;24.30;59.30
22456;DHT22;11395;53.204;6.502;2022-11-23T11:24:48;24.30;59.20
22456;DHT22;11395;53.204;6.502;2022-11-23T11:27:16;24.30;59.10
22456;DHT22;11395;53.204;6.502;2022-11-23T11:38:03;24.30;59.10
22456;DHT22;11395;53.204;6.502;2022-11-23T11:40:47;24.20;59.00
22456;DHT22;11395;53.204;6.502;2022-11-23T11:45:55;24.20;58.90
22456;DHT22;11395;53.204;6.502;2022-11-23T11:51:05;24.20;58.80
22456;DHT22;11395;53.204;6.502;2022-11-23T11:53:45;24.10;58.80
22456;DHT22;11395;53.204;6.502;2022-11-23T11:56:24;24.20;58.80
22456;DHT22;11395;53.204;6.502;2022-11-23T11:58:58;24.10;58.70
22456;DHT22;11395;53.204;6.502;2022-11-23T12:01:50;24.10;58.80
22456;DHT22;11395;53.204;6.502;2022-11-23T12:04:39;24.10;58.80
22456;DHT22;11395;53.204;6.502;2022-11-23T12:08:07;24.10;58.80
22456;DHT22;11395;53.204;6.502;2022-11-23T12:10:18;24.10;58.90
22456;DHT22;11395;53.204;6.502;2022-11-23T12:12:46;24.10;58.90
22456;DHT22;11395;53.204;6.502;2022-11-23T12:15:17;24.10;58.90
22456;DHT22;11395;53.204;6.502;2022-11-23T12:25:35;24.10;58.90
22456;DHT22;11395;53.204;6.502;2022-11-23T12:41:55;24.10;59.30
22456;DHT22;11395;53.204;6.502;2022-11-23T12:44:50;24.10;59.20
22456;DHT22;11395;53.204;6.502;2022-11-23T12:49:54;24.10;59.10
22456;DHT22;11395;53.204;6.502;2022-11-23T12:55:23;24.20;59.00
22456;DHT22;11395;53.204;6.502;2022-11-23T12:58:00;24.50;58.50
22456;DHT22;11395;53.204;6.502;2022-11-23T13:00:46;24.50;58.10
22456;DHT22;11395;53.204;6.502;2022-11-23T13:12:07;24.30;58.00
22456;DHT22;11395;53.204;6.502;2022-11-23T13:14:40;24.20;58.80
22456;DHT22;11395;53.204;6.502;2022-11-23T13:17:19;24.10;58.20
22456;DHT22;11395;53.204;6.502;2022-11-23T13:22:19;24.10;58.30
22456;DHT22;11395;53.204;6.502;2022-11-23T13:33:44;24.00;58.70
22456;DHT22;11395;53.204;6.502;2022-11-23T13:36:15;24.10;58.80
22456;DHT22;11395;53.204;6.502;2022-11-23T13:39:00;24.10;58.70
22456;DHT22;11395;53.204;6.502;2022-11-23T13:44:18;24.20;58.50
22456;DHT22;11395;53.204;6.502;2022-11-23T13:55:17;24.50;58.30
22456;DHT22;11395;53.204;6.502;2022-11-23T14:00:57;24.60;58.30
22456;DHT22;11395;53.204;6.502;2022-11-23T14:03:44;24.60;58.20
22456;DHT22;11395;53.204;6.502;2022-11-23T14:06:26;24.60;58.10
22456;DHT22;11395;53.204;6.502;2022-11-23T14:12:16;24.60;58.60
22456;DHT22;11395;53.204;6.502;2022-11-23T14:14:46;24.60;57.90
22456;DHT22;11395;53.204;6.502;2022-11-23T14:34:33;24.40;57.90
22456;DHT22;11395;53.204;6.502;2022-11-23T14:37:26;24.40;58.00
22456;DHT22;11395;53.204;6.502;2022-11-23T14:42:25;24.30;58.00
22456;DHT22;11395;53.204;6.502;2022-11-23T14:44:53;24.30;57.90
22456;DHT22;11395;53.204;6.502;2022-11-23T14:47:26;24.20;57.90
22456;DHT22;11395;53.204;6.502;2022-11-23T14:49:53;24.20;58.00
22456;DHT22;11395;53.204;6.502;2022-11-23T14:52:26;24.20;58.00
22456;DHT22;11395;53.204;6.502;2022-11-23T14:54:55;24.20;58.10
22456;DHT22;11395;53.204;6.502;2022-11-23T14:57:25;24.20;58.20
22456;DHT22;11395;53.204;6.502;2022-11-23T14:59:55;24.10;58.30
22456;DHT22;11395;53.204;6.502;2022-11-23T15:12:44;24.00;58.50
22456;DHT22;11395;53.204;6.502;2022-11-23T15:15:23;24.00;58.50
22456;DHT22;11395;53.204;6.502;2022-11-23T15:17:56;24.00;58.50
22456;DHT22;11395;53.204;6.502;2022-11-23T15:20:36;24.00;58.60
22456;DHT22;11395;53.204;6.502;2022-11-23T15:23:09;24.00;58.70
22456;DHT22;11395;53.204;6.502;2022-11-23T15:25:37;24.00;58.70
22456;DHT22;11395;53.204;6.502;2022-11-23T15:28:13;24.10;58.90
22456;DHT22;11395;53.204;6.502;2022-11-23T15:30:42;24.10;58.90
22456;DHT22;11395;53.204;6.502;2022-11-23T15:33:09;24.10;58.90
22456;DHT22;11395;53.204;6.502;2022-11-23T15:35:38;24.10;58.90
22456;DHT22;11395;53.204;6.502;2022-11-23T15:38:12;24.10;58.80
22456;DHT22;11395;53.204;6.502;2022-11-23T15:40:47;24.20;58.70
22456;DHT22;11395;53.204;6.502;2022-11-23T15:43:17;24.20;58.90
22456;DHT22;11395;53.204;6.502;2022-11-23T15:48:19;24.20;58.80
22456;DHT22;11395;53.204;6.502;2022-11-23T15:53:14;24.20;58.70
22456;DHT22;11395;53.204;6.502;2022-11-23T15:55:41;24.20;58.70
22456;DHT22;11395;53.204;6.502;2022-11-23T15:58:08;24.20;58.60
22456;DHT22;11395;53.204;6.502;2022-11-23T16:00:35;24.20;58.60
22456;DHT22;11395;53.204;6.502;2022-11-23T16:03:46;24.20;58.50
22456;DHT22;11395;53.204;6.502;2022-11-23T16:06:17;24.20;58.50
22456;DHT22;11395;53.204;6.502;2022-11-23T16:08:44;24.20;59.10
22456;DHT22;11395;53.204;6.502;2022-11-23T16:11:42;24.20;58.40
22456;DHT22;11395;53.204;6.502;2022-11-23T16:14:17;24.20;58.40
22456;DHT22;11395;53.204;6.502;2022-11-23T16:17:04;24.20;58.40
22456;DHT22;11395;53.204;6.502;2022-11-23T16:19:34;24.20;58.40
22456;DHT22;11395;53.204;6.502;2022-11-23T16:22:03;24.20;58.30
22456;DHT22;11395;53.204;6.502;2022-11-23T16:24:33;24.20;58.20
22456;DHT22;11395;53.204;6.502;2022-11-23T16:27:05;24.20;58.20
22456;DHT22;11395;53.204;6.502;2022-11-23T16:29:37;24.20;58.10
22456;DHT22;11395;53.204;6.502;2022-11-23T16:32:04;24.10;58.00
22456;DHT22;11395;53.204;6.502;2022-11-23T16:34:34;24.10;58.10
22456;DHT22;11395;53.204;6.502;2022-11-23T16:37:01;24.10;58.10
22456;DHT22;11395;53.204;6.502;2022-11-23T16:39:28;24.10;58.10
22456;DHT22;11395;53.204;6.502;2022-11-23T16:41:55;24.10;58.10
22456;DHT22;11395;53.204;6.502;2022-11-23T16:44:21;24.10;58.10
22456;DHT22;11395;53.204;6.502;2022-11-23T16:46:48;24.10;58.10
22456;DHT22;11395;53.204;6.502;2022-11-23T16:49:19;24.10;58.20
22456;DHT22;11395;53.204;6.502;2022-11-23T16:51:47;24.10;58.30
22456;DHT22;11395;53.204;6.502;2022-11-23T16:54:16;24.10;58.30
22456;DHT22;11395;53.204;6.502;2022-11-23T16:56:42;24.10;58.10
22456;DHT22;11395;53.204;6.502;2022-11-23T16:59:15;24.20;58.10
22456;DHT22;11395;53.204;6.502;2022-11-23T17:01:47;24.20;58.10
22456;DHT22;11395;53.204;6.502;2022-11-23T17:04:15;24.20;58.10
22456;DHT22;11395;53.204;6.502;2022-11-23T17:06:43;24.30;58.10
22456;DHT22;11395;53.204;6.502;2022-11-23T17:09:09;24.30;58.10
22456;DHT22;11395;53.204;6.502;2022-11-23T17:11:41;24.40;58.30
22456;DHT22;11395;53.204;6.502;2022-11-23T17:14:13;24.40;58.30
22456;DHT22;11395;53.204;6.502;2022-11-23T17:16:41;24.40;58.40
22456;DHT22;11395;53.204;6.502;2022-11-23T17:19:18;24.40;58.10
22456;DHT22;11395;53.204;6.502;2022-11-23T17:21:45;24.40;58.30
22456;DHT22;11395;53.204;6.502;2022-11-23T17:24:12;24.50;58.20
22456;DHT22;11395;53.204;6.502;2022-11-23T17:26:45;24.50;57.90
22456;DHT22;11395;53.204;6.502;2022-11-23T17:29:14;24.50;57.80
22456;DHT22;11395;53.204;6.502;2022-11-23T17:31:41;24.50;57.80
22456;DHT22;11395;53.204;6.502;2022-11-23T17:34:14;24.50;57.70
22456;DHT22;11395;53.204;6.502;2022-11-23T17:36:41;24.50;57.50
22456;DHT22;11395;53.204;6.502;2022-11-23T17:39:21;24.50;57.50
22456;DHT22;11395;53.204;6.502;2022-11-23T17:41:48;24.50;57.40
22456;DHT22;11395;53.204;6.502;2022-11-23T17:44:15;24.50;57.50
22456;DHT22;11395;53.204;6.502;2022-11-23T17:46:43;24.40;57.50
22456;DHT22;11395;53.204;6.502;2022-11-23T17:49:12;24.40;57.40
22456;DHT22;11395;53.204;6.502;2022-11-23T17:51:39;24.40;57.40
22456;DHT22;11395;53.204;6.502;2022-11-23T17:54:06;24.40;57.50
22456;DHT22;11395;53.204;6.502;2022-11-23T17:56:32;24.40;57.60
22456;DHT22;11395;53.204;6.502;2022-11-23T17:58:59;24.40;57.50
22456;DHT22;11395;53.204;6.502;2022-11-23T18:01:26;24.40;57.50
22456;DHT22;11395;53.204;6.502;2022-11-23T18:03:54;24.30;57.30
22456;DHT22;11395;53.204;6.502;2022-11-23T18:06:22;24.20;57.30
22456;DHT22;11395;53.204;6.502;2022-11-23T18:08:50;24.20;57.30
22456;DHT22;11395;53.204;6.502;2022-11-23T18:11:17;24.20;57.30
22456;DHT22;11395;53.204;6.502;2022-11-23T18:13:44;24.20;57.40
22456;DHT22;11395;53.204;6.502;2022-11-23T18:16:12;24.20;57.50
22456;DHT22;11395;53.204;6.502;2022-11-23T18:18:39;24.10;57.40
22456;DHT22;11395;53.204;6.502;2022-11-23T18:21:06;24.10;57.50
22456;DHT22;11395;53.204;6.502;2022-11-23T18:23:32;24.10;57.50
22456;DHT22;11395;53.204;6.502;2022-11-23T18:26:02;24.10;57.90
22456;DHT22;11395;53.204;6.502;2022-11-23T18:28:29;24.00;58.00
22456;DHT22;11395;53.204;6.502;2022-11-23T18:30:55;24.00;58.20
22456;DHT22;11395;53.204;6.502;2022-11-23T18:33:22;24.00;58.40
22456;DHT22;11395;53.204;6.502;2022-11-23T18:35:49;24.00;58.30
22456;DHT22;11395;53.204;6.502;2022-11-23T18:38:15;24.00;58.30
22456;DHT22;11395;53.204;6.502;2022-11-23T18:40:42;24.10;58.30
22456;DHT22;11395;53.204;6.502;2022-11-23T18:43:08;24.10;58.30
22456;DHT22;11395;53.204;6.502;2022-11-23T18:45:35;24.10;58.30